sensor_id;sensor_type;location;lat;lon;timestamp;temperature;humidity
22383;DHT22;11359;45.802;13.530;2022-10-04T00:01:29;19.60;61.30
22383;DHT22;11359;45.802;13.530;2022-10-04T00:04:06;19.60;61.30
22383;DHT22;11359;45.802;13.530;2022-10-04T00:06:34;19.60;61.50
22383;DHT22;11359;45.802;13.530;2022-10-04T00:09:10;19.50;61.20
22383;DHT22;11359;45.802;13.530;2022-10-04T00:11:37;19.50;61.10
22383;DHT22;11359;45.802;13.530;2022-10-04T00:14:29;19.50;61.10
22383;DHT22;11359;45.802;13.530;2022-10-04T00:16:56;19.50;61.10
22383;DHT22;11359;45.802;13.530;2022-10-04T00:19:35;19.50;61.00
22383;DHT22;11359;45.802;13.530;2022-10-04T00:24:34;19.50;61.00
22383;DHT22;11359;45.802;13.530;2022-10-04T00:29:41;19.40;60.90
22383;DHT22;11359;45.802;13.530;2022-10-04T00:34:48;19.40;60.90
22383;DHT22;11359;45.802;13.530;2022-10-04T00:37:18;19.40;60.90
22383;DHT22;11359;45.802;13.530;2022-10-04T00:40:02;19.40;60.90
22383;DHT22;11359;45.802;13.530;2022-10-04T00:43:18;19.30;60.80
22383;DHT22;11359;45.802;13.530;2022-10-04T00:49:05;19.30;60.70
22383;DHT22;11359;45.802;13.530;2022-10-04T00:52:14;19.30;60.70
22383;DHT22;11359;45.802;13.530;2022-10-04T00:54:42;19.20;60.70
22383;DHT22;11359;45.802;13.530;2022-10-04T00:57:11;19.20;60.70
22383;DHT22;11359;45.802;13.530;2022-10-04T01:00:02;19.20;60.70
22383;DHT22;11359;45.802;13.530;2022-10-04T01:02:45;19.20;60.70
22383;DHT22;11359;45.802;13.530;2022-10-04T01:05:14;19.20;60.70
22383;DHT22;11359;45.802;13.530;2022-10-04T01:07:51;19.20;60.70
22383;DHT22;11359;45.802;13.530;2022-10-04T01:10:28;19.10;60.70
22383;DHT22;11359;45.802;13.530;2022-10-04T01:13:06;19.10;60.70
22383;DHT22;11359;45.802;13.530;2022-10-04T01:16:00;19.10;60.60
22383;DHT22;11359;45.802;13.530;2022-10-04T01:18:31;19.10;60.60
22383;DHT22;11359;45.802;13.530;2022-10-04T01:23:43;19.10;60.60
22383;DHT22;11359;45.802;13.530;2022-10-04T01:31:35;19.00;60.60
22383;DHT22;11359;45.802;13.530;2022-10-04T01:34:02;19.00;60.50
22383;DHT22;11359;45.802;13.530;2022-10-04T01:36:30;19.00;60.60
22383;DHT22;11359;45.802;13.530;2022-10-04T01:38:56;18.90;60.40
22383;DHT22;11359;45.802;13.530;2022-10-04T01:41:55;19.00;60.50
22383;DHT22;11359;45.802;13.530;2022-10-04T01:44:36;18.90;60.40
22383;DHT22;11359;45.802;13.530;2022-10-04T01:47:08;19.00;60.50
22383;DHT22;11359;45.802;13.530;2022-10-04T01:49:38;18.90;60.50
22383;DHT22;11359;45.802;13.530;2022-10-04T01:52:09;18.90;60.40
22383;DHT22;11359;45.802;13.530;2022-10-04T01:54:42;18.90;60.40
22383;DHT22;11359;45.802;13.530;2022-10-04T01:57:21;18.90;60.40
22383;DHT22;11359;45.802;13.530;2022-10-04T02:00:00;18.90;60.40
22383;DHT22;11359;45.802;13.530;2022-10-04T02:05:50;18.90;60.50
22383;DHT22;11359;45.802;13.530;2022-10-04T02:08:17;18.80;60.30
22383;DHT22;11359;45.802;13.530;2022-10-04T02:10:48;18.80;60.40
22383;DHT22;11359;45.802;13.530;2022-10-04T02:13:15;18.90;60.50
22383;DHT22;11359;45.802;13.530;2022-10-04T02:15:46;18.80;60.40
22383;DHT22;11359;45.802;13.530;2022-10-04T02:18:16;18.80;60.30
22383;DHT22;11359;45.802;13.530;2022-10-04T02:20:43;18.80;60.30
22383;DHT22;11359;45.802;13.530;2022-10-04T02:23:11;18.80;60.30
22383;DHT22;11359;45.802;13.530;2022-10-04T02:25:37;18.80;60.30
22383;DHT22;11359;45.802;13.530;2022-10-04T02:28:07;18.80;60.30
22383;DHT22;11359;45.802;13.530;2022-10-04T02:30:40;18.80;60.20
22383;DHT22;11359;45.802;13.530;2022-10-04T02:33:07;18.80;60.10
22383;DHT22;11359;45.802;13.530;2022-10-04T02:35:42;18.80;60.00
22383;DHT22;11359;45.802;13.530;2022-10-04T02:40:59;18.80;60.00
22383;DHT22;11359;45.802;13.530;2022-10-04T02:44:48;18.80;60.00
22383;DHT22;11359;45.802;13.530;2022-10-04T02:49:38;18.80;59.90
22383;DHT22;11359;45.802;13.530;2022-10-04T02:52:19;18.80;59.90
22383;DHT22;11359;45.802;13.530;2022-10-04T02:55:05;18.70;59.90
22383;DHT22;11359;45.802;13.530;2022-10-04T02:57:33;18.70;59.90
22383;DHT22;11359;45.802;13.530;2022-10-04T03:00:21;18.70;60.00
22383;DHT22;11359;45.802;13.530;2022-10-04T03:05:37;18.70;60.00
22383;DHT22;11359;45.802;13.530;2022-10-04T03:08:04;18.70;60.00
22383;DHT22;11359;45.802;13.530;2022-10-04T03:10:30;18.70;60.00
22383;DHT22;11359;45.802;13.530;2022-10-04T03:12:56;18.70;59.90
22383;DHT22;11359;45.802;13.530;2022-10-04T03:15:22;18.70;60.00
22383;DHT22;11359;45.802;13.530;2022-10-04T03:17:49;18.80;60.00
22383;DHT22;11359;45.802;13.530;2022-10-04T03:20:16;18.80;59.90
22383;DHT22;11359;45.802;13.530;2022-10-04T03:22:47;18.80;59.90
22383;DHT22;11359;45.802;13.530;2022-10-04T03:25:44;18.70;60.40
22383;DHT22;11359;45.802;13.530;2022-10-04T03:28:11;18.80;59.90
22383;DHT22;11359;45.802;13.530;2022-10-04T03:30:42;18.80;59.90
22383;DHT22;11359;45.802;13.530;2022-10-04T03:33:21;18.80;59.90
22383;DHT22;11359;45.802;13.530;2022-10-04T03:35:57;18.80;59.80
22383;DHT22;11359;45.802;13.530;2022-10-04T03:38:25;18.80;59.80
22383;DHT22;11359;45.802;13.530;2022-10-04T03:40:58;18.80;59.80
22383;DHT22;11359;45.802;13.530;2022-10-04T03:43:28;18.80;59.80
22383;DHT22;11359;45.802;13.530;2022-10-04T03:46:00;18.80;59.80
22383;DHT22;11359;45.802;13.530;2022-10-04T03:48:34;18.80;59.80
22383;DHT22;11359;45.802;13.530;2022-10-04T03:51:04;18.80;59.70
22383;DHT22;11359;45.802;13.530;2022-10-04T03:53:34;18.80;59.70
22383;DHT22;11359;45.802;13.530;2022-10-04T03:56:07;18.80;59.70
22383;DHT22;11359;45.802;13.530;2022-10-04T03:58:34;18.80;59.70
22383;DHT22;11359;45.802;13.530;2022-10-04T04:06:58;18.80;59.70
22383;DHT22;11359;45.802;13.530;2022-10-04T04:09:55;18.80;59.60
22383;DHT22;11359;45.802;13.530;2022-10-04T04:12:50;18.70;59.50
22383;DHT22;11359;45.802;13.530;2022-10-04T04:15:15;18.80;59.60
22383;DHT22;11359;45.802;13.530;2022-10-04T04:17:41;18.80;59.60
22383;DHT22;11359;45.802;13.530;2022-10-04T04:20:17;18.70;59.50
22383;DHT22;11359;45.802;13.530;2022-10-04T04:22:52;18.70;59.50
22383;DHT22;11359;45.802;13.530;2022-10-04T04:25:20;18.70;59.50
22383;DHT22;11359;45.802;13.530;2022-10-04T04:27:49;18.70;59.50
22383;DHT22;11359;45.802;13.530;2022-10-04T04:30:17;18.70;59.50
22383;DHT22;11359;45.802;13.530;2022-10-04T04:32:51;18.70;59.50
22383;DHT22;11359;45.802;13.530;2022-10-04T04:35:32;18.70;59.50
22383;DHT22;11359;45.802;13.530;2022-10-04T04:38:22;18.70;59.50
22383;DHT22;11359;45.802;13.530;2022-10-04T04:40:49;18.70;59.40
22383;DHT22;11359;45.802;13.530;2022-10-04T04:43:20;18.70;59.40
22383;DHT22;11359;45.802;13.530;2022-10-04T04:45:49;18.70;59.40
22383;DHT22;11359;45.802;13.530;2022-10-04T04:48:17;18.70;59.40
22383;DHT22;11359;45.802;13.530;2022-10-04T04:50:52;18.60;59.30
22383;DHT22;11359;45.802;13.530;2022-10-04T04:53:25;18.70;59.30
22383;DHT22;11359;45.802;13.530;2022-10-04T04:55:57;18.60;59.30
22383;DHT22;11359;45.802;13.530;2022-10-04T04:58:28;18.60;59.30
22383;DHT22;11359;45.802;13.530;2022-10-04T05:01:00;18.60;59.30
22383;DHT22;11359;45.802;13.530;2022-10-04T05:03:26;18.60;59.30
22383;DHT22;11359;45.802;13.530;2022-10-04T05:05:54;18.60;59.30
22383;DHT22;11359;45.802;13.530;2022-10-04T05:08:26;18.60;59.30
22383;DHT22;11359;45.802;13.530;2022-10-04T05:13:37;18.60;59.30
22383;DHT22;11359;45.802;13.530;2022-10-04T05:16:18;18.60;59.30
22383;DHT22;11359;45.802;13.530;2022-10-04T05:18:45;18.60;59.30
22383;DHT22;11359;45.802;13.530;2022-10-04T05:23:46;18.60;60.00
22383;DHT22;11359;45.802;13.530;2022-10-04T05:26:13;18.60;59.30
22383;DHT22;11359;45.802;13.530;2022-10-04T05:28:39;18.60;59.30
22383;DHT22;11359;45.802;13.530;2022-10-04T05:33:45;18.60;59.30
22383;DHT22;11359;45.802;13.530;2022-10-04T05:38:56;18.70;59.30
22383;DHT22;11359;45.802;13.530;2022-10-04T05:44:21;18.70;59.20
22383;DHT22;11359;45.802;13.530;2022-10-04T05:46:48;18.70;59.20
22383;DHT22;11359;45.802;13.530;2022-10-04T05:49:15;18.70;59.20
22383;DHT22;11359;45.802;13.530;2022-10-04T05:52:01;18.60;59.10
22383;DHT22;11359;45.802;13.530;2022-10-04T05:54:30;18.70;59.20
22383;DHT22;11359;45.802;13.530;2022-10-04T05:57:13;18.70;59.20
22383;DHT22;11359;45.802;13.530;2022-10-04T06:02:52;18.70;59.20
22383;DHT22;11359;45.802;13.530;2022-10-04T06:05:52;18.70;59.20
22383;DHT22;11359;45.802;13.530;2022-10-04T06:08:45;18.70;59.20
22383;DHT22;11359;45.802;13.530;2022-10-04T06:14:28;18.70;59.10
22383;DHT22;11359;45.802;13.530;2022-10-04T06:20:00;18.70;59.20
22383;DHT22;11359;45.802;13.530;2022-10-04T06:22:30;18.70;59.10
22383;DHT22;11359;45.802;13.530;2022-10-04T06:25:16;18.70;59.10
22383;DHT22;11359;45.802;13.530;2022-10-04T06:28:09;18.70;59.10
22383;DHT22;11359;45.802;13.530;2022-10-04T06:33:33;18.80;59.20
22383;DHT22;11359;45.802;13.530;2022-10-04T06:36:27;18.80;59.20
22383;DHT22;11359;45.802;13.530;2022-10-04T06:46:50;18.80;59.10
22383;DHT22;11359;45.802;13.530;2022-10-04T06:49:32;18.80;59.10
22383;DHT22;11359;45.802;13.530;2022-10-04T06:58:09;18.90;59.10
22383;DHT22;11359;45.802;13.530;2022-10-04T07:00:51;18.90;59.10
22383;DHT22;11359;45.802;13.530;2022-10-04T07:04:09;18.90;59.10
22383;DHT22;11359;45.802;13.530;2022-10-04T07:06:13;18.90;59.10
22383;DHT22;11359;45.802;13.530;2022-10-04T07:08:48;19.00;59.20
22383;DHT22;11359;45.802;13.530;2022-10-04T07:11:37;19.00;59.20
22383;DHT22;11359;45.802;13.530;2022-10-04T07:14:12;19.00;59.20
22383;DHT22;11359;45.802;13.530;2022-10-04T07:16:47;19.00;59.20
22383;DHT22;11359;45.802;13.530;2022-10-04T07:21:52;19.10;59.20
22383;DHT22;11359;45.802;13.530;2022-10-04T07:27:08;19.20;59.30
22383;DHT22;11359;45.802;13.530;2022-10-04T07:29:39;19.20;59.30
22383;DHT22;11359;45.802;13.530;2022-10-04T07:32:15;19.20;60.00
22383;DHT22;11359;45.802;13.530;2022-10-04T07:34:48;19.20;59.40
22383;DHT22;11359;45.802;13.530;2022-10-04T07:37:16;19.30;60.10
22383;DHT22;11359;45.802;13.530;2022-10-04T07:45:10;19.30;59.30
22383;DHT22;11359;45.802;13.530;2022-10-04T07:47:36;19.30;59.20
22383;DHT22;11359;45.802;13.530;2022-10-04T07:50:38;19.40;59.30
22383;DHT22;11359;45.802;13.530;2022-10-04T07:53:23;19.40;59.30
22383;DHT22;11359;45.802;13.530;2022-10-04T08:01:51;19.40;59.40
22383;DHT22;11359;45.802;13.530;2022-10-04T08:07:25;19.50;60.20
22383;DHT22;11359;45.802;13.530;2022-10-04T08:10:09;19.50;59.50
22383;DHT22;11359;45.802;13.530;2022-10-04T08:13:09;19.50;59.50
22383;DHT22;11359;45.802;13.530;2022-10-04T08:15:42;19.50;59.50
22383;DHT22;11359;45.802;13.530;2022-10-04T08:18:37;19.50;59.50
22383;DHT22;11359;45.802;13.530;2022-10-04T08:21:13;19.60;59.50
22383;DHT22;11359;45.802;13.530;2022-10-04T08:29:22;19.60;59.40
22383;DHT22;11359;45.802;13.530;2022-10-04T08:32:19;19.70;59.50
22383;DHT22;11359;45.802;13.530;2022-10-04T08:38:00;19.70;59.70
22383;DHT22;11359;45.802;13.530;2022-10-04T08:46:25;19.80;59.70
22383;DHT22;11359;45.802;13.530;2022-10-04T08:57:58;20.00;60.00
22383;DHT22;11359;45.802;13.530;2022-10-04T09:05:52;20.20;60.00
22383;DHT22;11359;45.802;13.530;2022-10-04T09:09:05;20.30;60.00
22383;DHT22;11359;45.802;13.530;2022-10-04T09:17:18;20.40;59.90
22383;DHT22;11359;45.802;13.530;2022-10-04T09:34:29;20.50;60.00
22383;DHT22;11359;45.802;13.530;2022-10-04T09:37:13;20.60;60.00
22383;DHT22;11359;45.802;13.530;2022-10-04T09:56:57;20.90;60.00
22383;DHT22;11359;45.802;13.530;2022-10-04T09:59:22;20.90;60.00
22383;DHT22;11359;45.802;13.530;2022-10-04T10:13:31;21.10;60.20
22383;DHT22;11359;45.802;13.530;2022-10-04T10:16:28;21.20;60.10
22383;DHT22;11359;45.802;13.530;2022-10-04T10:19:05;21.20;60.10
22383;DHT22;11359;45.802;13.530;2022-10-04T10:25:05;21.30;60.10
22383;DHT22;11359;45.802;13.530;2022-10-04T10:47:47;21.60;59.90
22383;DHT22;11359;45.802;13.530;2022-10-04T11:14:34;21.80;59.40
22383;DHT22;11359;45.802;13.530;2022-10-04T11:54:04;21.90;59.70
22383;DHT22;11359;45.802;13.530;2022-10-04T11:59:47;21.90;59.70
22383;DHT22;11359;45.802;13.530;2022-10-04T12:10:43;21.90;59.70
22383;DHT22;11359;45.802;13.530;2022-10-04T12:13:36;21.90;59.70
22383;DHT22;11359;45.802;13.530;2022-10-04T12:28:19;21.90;59.90
22383;DHT22;11359;45.802;13.530;2022-10-04T12:34:01;21.90;60.00
22383;DHT22;11359;45.802;13.530;2022-10-04T12:50:21;21.90;60.10
22383;DHT22;11359;45.802;13.530;2022-10-04T12:56:14;21.90;60.10
22383;DHT22;11359;45.802;13.530;2022-10-04T13:04:54;21.90;60.10
22383;DHT22;11359;45.802;13.530;2022-10-04T13:07:35;21.90;60.10
22383;DHT22;11359;45.802;13.530;2022-10-04T13:10:17;21.90;60.30
22383;DHT22;11359;45.802;13.530;2022-10-04T13:13:05;21.90;60.30
22383;DHT22;11359;45.802;13.530;2022-10-04T13:27:11;22.10;60.90
22383;DHT22;11359;45.802;13.530;2022-10-04T13:30:03;22.10;61.00
22383;DHT22;11359;45.802;13.530;2022-10-04T13:32:51;22.20;61.10
22383;DHT22;11359;45.802;13.530;2022-10-04T13:41:39;22.30;61.20
22383;DHT22;11359;45.802;13.530;2022-10-04T13:57:51;22.60;61.00
22383;DHT22;11359;45.802;13.530;2022-10-04T14:00:51;22.60;60.90
22383;DHT22;11359;45.802;13.530;2022-10-04T14:17:57;22.70;60.60
22383;DHT22;11359;45.802;13.530;2022-10-04T14:26:11;22.70;60.50
22383;DHT22;11359;45.802;13.530;2022-10-04T14:52:46;22.50;60.70
22383;DHT22;11359;45.802;13.530;2022-10-04T15:01:19;22.40;61.00
22383;DHT22;11359;45.802;13.530;2022-10-04T15:06:46;22.40;61.30
22383;DHT22;11359;45.802;13.530;2022-10-04T15:17:26;22.50;61.80
22383;DHT22;11359;45.802;13.530;2022-10-04T15:22:45;22.60;62.00
22383;DHT22;11359;45.802;13.530;2022-10-04T15:25:51;22.60;62.00
22383;DHT22;11359;45.802;13.530;2022-10-04T15:28:35;22.60;62.10
22383;DHT22;11359;45.802;13.530;2022-10-04T15:36:48;22.70;62.00
22383;DHT22;11359;45.802;13.530;2022-10-04T15:42:37;22.80;62.00
22383;DHT22;11359;45.802;13.530;2022-10-04T15:53:49;22.70;61.70
22383;DHT22;11359;45.802;13.530;2022-10-04T16:02:24;22.70;62.50
22383;DHT22;11359;45.802;13.530;2022-10-04T16:15:34;22.60;61.80
22383;DHT22;11359;45.802;13.530;2022-10-04T16:23:42;22.50;61.80
22383;DHT22;11359;45.802;13.530;2022-10-04T16:39:49;22.40;61.90
22383;DHT22;11359;45.802;13.530;2022-10-04T16:42:46;22.30;61.80
22383;DHT22;11359;45.802;13.530;2022-10-04T16:45:41;22.30;61.90
22383;DHT22;11359;45.802;13.530;2022-10-04T16:53:49;22.20;61.90
22383;DHT22;11359;45.802;13.530;2022-10-04T16:56:20;22.20;62.00
22383;DHT22;11359;45.802;13.530;2022-10-04T16:58:50;22.20;62.10
22383;DHT22;11359;45.802;13.530;2022-10-04T17:09:57;22.00;62.10
22383;DHT22;11359;45.802;13.530;2022-10-04T17:13:29;22.00;62.10
22383;DHT22;11359;45.802;13.530;2022-10-04T17:16:09;22.00;62.20
22383;DHT22;11359;45.802;13.530;2022-10-04T17:27:41;21.80;62.40
22383;DHT22;11359;45.802;13.530;2022-10-04T17:30:23;21.80;62.50
22383;DHT22;11359;45.802;13.530;2022-10-04T17:49:29;21.60;62.80
22383;DHT22;11359;45.802;13.530;2022-10-04T17:52:33;21.60;62.80
22383;DHT22;11359;45.802;13.530;2022-10-04T17:55:41;21.60;63.00
22383;DHT22;11359;45.802;13.530;2022-10-04T17:58:18;21.50;63.00
22383;DHT22;11359;45.802;13.530;2022-10-04T18:01:02;21.50;63.10
22383;DHT22;11359;45.802;13.530;2022-10-04T18:03:46;21.50;63.10
22383;DHT22;11359;45.802;13.530;2022-10-04T18:08:54;21.40;63.20
22383;DHT22;11359;45.802;13.530;2022-10-04T18:16:58;21.40;63.50
22383;DHT22;11359;45.802;13.530;2022-10-04T18:19:42;21.30;63.50
22383;DHT22;11359;45.802;13.530;2022-10-04T18:24:38;21.30;63.60
22383;DHT22;11359;45.802;13.530;2022-10-04T18:30:13;21.30;63.70
22383;DHT22;11359;45.802;13.530;2022-10-04T18:32:44;21.30;63.80
22383;DHT22;11359;45.802;13.530;2022-10-04T18:38:19;21.20;63.70
22383;DHT22;11359;45.802;13.530;2022-10-04T18:41:15;21.20;63.80
22383;DHT22;11359;45.802;13.530;2022-10-04T18:46:23;21.20;63.90
22383;DHT22;11359;45.802;13.530;2022-10-04T18:48:58;21.20;63.90
22383;DHT22;11359;45.802;13.530;2022-10-04T18:54:21;21.20;64.00
22383;DHT22;11359;45.802;13.530;2022-10-04T19:03:03;21.10;64.10
22383;DHT22;11359;45.802;13.530;2022-10-04T19:10:58;21.00;64.20
22383;DHT22;11359;45.802;13.530;2022-10-04T19:16:14;21.00;64.30
22383;DHT22;11359;45.802;13.530;2022-10-04T19:19:00;21.00;64.40
22383;DHT22;11359;45.802;13.530;2022-10-04T19:21:53;21.00;64.50
22383;DHT22;11359;45.802;13.530;2022-10-04T19:27:34;20.90;64.50
22383;DHT22;11359;45.802;13.530;2022-10-04T19:43:54;20.90;64.80
22383;DHT22;11359;45.802;13.530;2022-10-04T19:46:35;20.90;64.80
22383;DHT22;11359;45.802;13.530;2022-10-04T19:49:02;20.90;64.90
22383;DHT22;11359;45.802;13.530;2022-10-04T19:51:47;20.90;64.90
22383;DHT22;11359;45.802;13.530;2022-10-04T19:54:20;20.80;64.90
22383;DHT22;11359;45.802;13.530;2022-10-04T19:56:49;20.80;64.90
22383;DHT22;11359;45.802;13.530;2022-10-04T19:59:24;20.80;64.90
22383;DHT22;11359;45.802;13.530;2022-10-04T20:01:57;20.80;64.90
22383;DHT22;11359;45.802;13.530;2022-10-04T20:04:22;20.80;64.90
22383;DHT22;11359;45.802;13.530;2022-10-04T20:07:17;20.80;64.90
22383;DHT22;11359;45.802;13.530;2022-10-04T20:17:39;20.80;64.90
22383;DHT22;11359;45.802;13.530;2022-10-04T20:20:05;20.70;64.90
22383;DHT22;11359;45.802;13.530;2022-10-04T20:30:55;20.70;65.00
22383;DHT22;11359;45.802;13.530;2022-10-04T20:33:47;20.60;65.00
22383;DHT22;11359;45.802;13.530;2022-10-04T20:38:59;20.60;65.20
22383;DHT22;11359;45.802;13.530;2022-10-04T20:43:57;20.60;65.20
22383;DHT22;11359;45.802;13.530;2022-10-04T20:46:29;20.60;65.20
22383;DHT22;11359;45.802;13.530;2022-10-04T20:48:57;20.60;65.20
22383;DHT22;11359;45.802;13.530;2022-10-04T20:51:24;20.50;65.20
22383;DHT22;11359;45.802;13.530;2022-10-04T20:53:52;20.60;65.30
22383;DHT22;11359;45.802;13.530;2022-10-04T20:56:31;20.50;65.20
22383;DHT22;11359;45.802;13.530;2022-10-04T20:58:59;20.50;65.30
22383;DHT22;11359;45.802;13.530;2022-10-04T21:01:32;20.50;65.20
22383;DHT22;11359;45.802;13.530;2022-10-04T21:04:28;20.50;65.20
22383;DHT22;11359;45.802;13.530;2022-10-04T21:06:59;20.50;65.20
22383;DHT22;11359;45.802;13.530;2022-10-04T21:09:26;20.40;65.10
22383;DHT22;11359;45.802;13.530;2022-10-04T21:11:54;20.40;65.10
22383;DHT22;11359;45.802;13.530;2022-10-04T21:14:38;20.50;65.20
22383;DHT22;11359;45.802;13.530;2022-10-04T21:17:32;20.50;65.20
22383;DHT22;11359;45.802;13.530;2022-10-04T21:19:57;20.40;65.20
22383;DHT22;11359;45.802;13.530;2022-10-04T21:24:55;20.40;65.20
22383;DHT22;11359;45.802;13.530;2022-10-04T21:27:39;20.30;65.20
22383;DHT22;11359;45.802;13.530;2022-10-04T21:30:16;20.30;65.20
22383;DHT22;11359;45.802;13.530;2022-10-04T21:32:44;20.30;65.30
22383;DHT22;11359;45.802;13.530;2022-10-04T21:35:11;20.30;65.30
22383;DHT22;11359;45.802;13.530;2022-10-04T21:37:37;20.30;65.40
22383;DHT22;11359;45.802;13.530;2022-10-04T21:40:04;20.30;65.30
22383;DHT22;11359;45.802;13.530;2022-10-04T21:42:31;20.30;65.40
22383;DHT22;11359;45.802;13.530;2022-10-04T21:44:56;20.30;65.50
22383;DHT22;11359;45.802;13.530;2022-10-04T21:47:22;20.20;65.50
22383;DHT22;11359;45.802;13.530;2022-10-04T21:49:49;20.20;65.50
22383;DHT22;11359;45.802;13.530;2022-10-04T21:52:16;20.20;65.50
22383;DHT22;11359;45.802;13.530;2022-10-04T21:54:43;20.20;65.50
22383;DHT22;11359;45.802;13.530;2022-10-04T21:57:09;20.20;65.60
22383;DHT22;11359;45.802;13.530;2022-10-04T21:59:35;20.20;65.60
22383;DHT22;11359;45.802;13.530;2022-10-04T22:02:01;20.20;65.60
22383;DHT22;11359;45.802;13.530;2022-10-04T22:04:26;20.20;65.60
22383;DHT22;11359;45.802;13.530;2022-10-04T22:06:52;20.20;65.70
22383;DHT22;11359;45.802;13.530;2022-10-04T22:09:18;20.20;65.70
22383;DHT22;11359;45.802;13.530;2022-10-04T22:11:44;20.20;65.90
22383;DHT22;11359;45.802;13.530;2022-10-04T22:14:09;20.20;65.90
22383;DHT22;11359;45.802;13.530;2022-10-04T22:16:35;20.20;65.90
22383;DHT22;11359;45.802;13.530;2022-10-04T22:19:01;20.20;65.90
22383;DHT22;11359;45.802;13.530;2022-10-04T22:21:26;20.10;65.80
22383;DHT22;11359;45.802;13.530;2022-10-04T22:23:52;20.10;65.80
22383;DHT22;11359;45.802;13.530;2022-10-04T22:26:20;20.10;65.80
22383;DHT22;11359;45.802;13.530;2022-10-04T22:28:55;20.10;65.80
22383;DHT22;11359;45.802;13.530;2022-10-04T22:31:25;20.10;65.90
22383;DHT22;11359;45.802;13.530;2022-10-04T22:33:53;20.10;65.90
22383;DHT22;11359;45.802;13.530;2022-10-04T22:36:34;20.10;66.00
22383;DHT22;11359;45.802;13.530;2022-10-04T22:39:11;20.10;66.00
22383;DHT22;11359;45.802;13.530;2022-10-04T22:41:46;20.10;66.00
22383;DHT22;11359;45.802;13.530;2022-10-04T22:44:19;20.10;66.10
22383;DHT22;11359;45.802;13.530;2022-10-04T22:46:50;20.10;66.10
22383;DHT22;11359;45.802;13.530;2022-10-04T22:49:19;20.10;66.10
22383;DHT22;11359;45.802;13.530;2022-10-04T22:51:47;20.10;66.20
22383;DHT22;11359;45.802;13.530;2022-10-04T22:54:19;20.10;66.20
22383;DHT22;11359;45.802;13.530;2022-10-04T22:56:46;20.10;66.20
22383;DHT22;11359;45.802;13.530;2022-10-04T22:59:14;20.10;66.20
22383;DHT22;11359;45.802;13.530;2022-10-04T23:01:41;20.10;66.30
22383;DHT22;11359;45.802;13.530;2022-10-04T23:04:23;20.10;66.30
22383;DHT22;11359;45.802;13.530;2022-10-04T23:06:50;20.10;66.30
22383;DHT22;11359;45.802;13.530;2022-10-04T23:09:16;20.10;66.30
22383;DHT22;11359;45.802;13.530;2022-10-04T23:11:43;20.10;66.30
22383;DHT22;11359;45.802;13.530;2022-10-04T23:14:08;20.10;66.30
22383;DHT22;11359;45.802;13.530;2022-10-04T23:16:35;20.10;66.20
22383;DHT22;11359;45.802;13.530;2022-10-04T23:19:12;20.10;66.20
22383;DHT22;11359;45.802;13.530;2022-10-04T23:21:43;20.10;66.20
22383;DHT22;11359;45.802;13.530;2022-10-04T23:24:13;20.10;66.10
22383;DHT22;11359;45.802;13.530;2022-10-04T23:26:41;20.00;66.10
22383;DHT22;11359;45.802;13.530;2022-10-04T23:29:21;20.00;66.10
22383;DHT22;11359;45.802;13.530;2022-10-04T23:31:47;20.00;66.10
22383;DHT22;11359;45.802;13.530;2022-10-04T23:34:35;20.00;66.00
22383;DHT22;11359;45.802;13.530;2022-10-04T23:37:02;20.00;66.10
22383;DHT22;11359;45.802;13.530;2022-10-04T23:39:31;20.00;66.00
22383;DHT22;11359;45.802;13.530;2022-10-04T23:41:58;20.00;65.90
22383;DHT22;11359;45.802;13.530;2022-10-04T23:44:29;19.90;65.80
22383;DHT22;11359;45.802;13.530;2022-10-04T23:46:58;19.90;65.80
22383;DHT22;11359;45.802;13.530;2022-10-04T23:49:23;19.90;65.80
22383;DHT22;11359;45.802;13.530;2022-10-04T23:51:53;19.90;65.80
22383;DHT22;11359;45.802;13.530;2022-10-04T23:54:19;19.90;65.80
22383;DHT22;11359;45.802;13.530;2022-10-04T23:56:45;19.80;65.70
22383;DHT22;11359;45.802;13.530;2022-10-04T23:59:15;19.80;65.70
